sensor_id;sensor_type;location;lat;lon;timestamp;temperature;humidity
49222;DHT22;35047;37.588;-122.048;2023-07-29T00:00:09;44.10;29.50
49222;DHT22;35047;37.588;-122.048;2023-07-29T00:02:37;44.10;29.90
49222;DHT22;35047;37.588;-122.048;2023-07-29T00:05:03;44.10;30.00
49222;DHT22;35047;37.588;-122.048;2023-07-29T00:07:30;44.10;29.90
49222;DHT22;35047;37.588;-122.048;2023-07-29T00:09:57;43.70;29.70
49222;DHT22;35047;37.588;-122.048;2023-07-29T00:12:24;43.40;30.70
49222;DHT22;35047;37.588;-122.048;2023-07-29T00:14:51;42.80;30.70
49222;DHT22;35047;37.588;-122.048;2023-07-29T00:17:17;42.30;31.00
49222;DHT22;35047;37.588;-122.048;2023-07-29T00:19:46;42.00;30.50
49222;DHT22;35047;37.588;-122.048;2023-07-29T00:22:12;41.30;30.80
49222;DHT22;35047;37.588;-122.048;2023-07-29T00:24:40;40.80;31.40
49222;DHT22;35047;37.588;-122.048;2023-07-29T00:27:07;40.70;31.40
49222;DHT22;35047;37.588;-122.048;2023-07-29T00:29:33;40.50;32.10
49222;DHT22;35047;37.588;-122.048;2023-07-29T00:32:00;40.70;32.40
49222;DHT22;35047;37.588;-122.048;2023-07-29T00:34:26;40.50;32.70
49222;DHT22;35047;37.588;-122.048;2023-07-29T00:36:52;40.40;33.00
49222;DHT22;35047;37.588;-122.048;2023-07-29T00:39:19;40.30;33.50
49222;DHT22;35047;37.588;-122.048;2023-07-29T00:41:45;40.30;33.80
49222;DHT22;35047;37.588;-122.048;2023-07-29T00:44:12;40.00;33.80
49222;DHT22;35047;37.588;-122.048;2023-07-29T00:46:38;39.40;34.30
49222;DHT22;35047;37.588;-122.048;2023-07-29T00:49:07;39.40;34.80
49222;DHT22;35047;37.588;-122.048;2023-07-29T00:51:33;38.50;35.00
49222;DHT22;35047;37.588;-122.048;2023-07-29T00:54:00;37.20;36.40
49222;DHT22;35047;37.588;-122.048;2023-07-29T00:56:26;35.90;37.60
49222;DHT22;35047;37.588;-122.048;2023-07-29T00:58:53;35.00;38.80
49222;DHT22;35047;37.588;-122.048;2023-07-29T01:01:25;34.30;39.70
49222;DHT22;35047;37.588;-122.048;2023-07-29T01:03:51;33.50;41.30
49222;DHT22;35047;37.588;-122.048;2023-07-29T01:06:40;33.30;42.10
49222;DHT22;35047;37.588;-122.048;2023-07-29T01:09:13;33.40;42.20
49222;DHT22;35047;37.588;-122.048;2023-07-29T01:12:03;33.50;42.10
49222;DHT22;35047;37.588;-122.048;2023-07-29T01:17:03;34.20;41.30
49222;DHT22;35047;37.588;-122.048;2023-07-29T01:22:11;34.20;42.00
49222;DHT22;35047;37.588;-122.048;2023-07-29T01:24:39;34.50;41.30
49222;DHT22;35047;37.588;-122.048;2023-07-29T01:27:06;34.10;40.90
49222;DHT22;35047;37.588;-122.048;2023-07-29T01:29:33;34.20;41.20
49222;DHT22;35047;37.588;-122.048;2023-07-29T01:32:06;34.20;41.40
49222;DHT22;35047;37.588;-122.048;2023-07-29T01:34:49;34.20;40.90
49222;DHT22;35047;37.588;-122.048;2023-07-29T01:37:22;34.20;40.90
49222;DHT22;35047;37.588;-122.048;2023-07-29T01:39:50;34.00;40.50
49222;DHT22;35047;37.588;-122.048;2023-07-29T01:42:19;33.90;41.20
49222;DHT22;35047;37.588;-122.048;2023-07-29T01:44:45;33.70;41.40
49222;DHT22;35047;37.588;-122.048;2023-07-29T01:47:12;33.30;41.80
49222;DHT22;35047;37.588;-122.048;2023-07-29T01:49:38;32.80;42.20
49222;DHT22;35047;37.588;-122.048;2023-07-29T01:52:06;32.20;43.30
49222;DHT22;35047;37.588;-122.048;2023-07-29T01:54:32;31.80;43.90
49222;DHT22;35047;37.588;-122.048;2023-07-29T01:56:59;31.30;44.20
49222;DHT22;35047;37.588;-122.048;2023-07-29T01:59:26;30.80;45.40
49222;DHT22;35047;37.588;-122.048;2023-07-29T02:01:52;30.50;46.10
49222;DHT22;35047;37.588;-122.048;2023-07-29T02:04:18;30.00;46.90
49222;DHT22;35047;37.588;-122.048;2023-07-29T02:06:45;29.80;47.30
49222;DHT22;35047;37.588;-122.048;2023-07-29T02:09:11;29.60;48.10
49222;DHT22;35047;37.588;-122.048;2023-07-29T02:11:38;29.00;49.50
49222;DHT22;35047;37.588;-122.048;2023-07-29T02:14:04;28.60;49.30
49222;DHT22;35047;37.588;-122.048;2023-07-29T02:16:31;28.50;50.00
49222;DHT22;35047;37.588;-122.048;2023-07-29T02:18:59;28.30;50.40
49222;DHT22;35047;37.588;-122.048;2023-07-29T02:21:25;27.90;51.00
49222;DHT22;35047;37.588;-122.048;2023-07-29T02:23:52;27.60;52.00
49222;DHT22;35047;37.588;-122.048;2023-07-29T02:26:18;27.30;52.40
49222;DHT22;35047;37.588;-122.048;2023-07-29T02:28:45;27.10;53.20
49222;DHT22;35047;37.588;-122.048;2023-07-29T02:31:21;27.00;53.30
49222;DHT22;35047;37.588;-122.048;2023-07-29T02:33:48;26.90;53.50
49222;DHT22;35047;37.588;-122.048;2023-07-29T02:36:16;26.80;53.80
49222;DHT22;35047;37.588;-122.048;2023-07-29T02:38:42;26.50;54.10
49222;DHT22;35047;37.588;-122.048;2023-07-29T02:41:09;26.30;54.90
49222;DHT22;35047;37.588;-122.048;2023-07-29T02:43:38;26.30;54.80
49222;DHT22;35047;37.588;-122.048;2023-07-29T02:46:05;26.00;55.20
49222;DHT22;35047;37.588;-122.048;2023-07-29T02:48:31;25.90;55.80
49222;DHT22;35047;37.588;-122.048;2023-07-29T02:50:58;25.60;56.10
49222;DHT22;35047;37.588;-122.048;2023-07-29T02:53:25;25.40;56.40
49222;DHT22;35047;37.588;-122.048;2023-07-29T02:55:51;25.10;57.20
49222;DHT22;35047;37.588;-122.048;2023-07-29T02:58:18;25.00;57.80
49222;DHT22;35047;37.588;-122.048;2023-07-29T03:00:44;24.90;58.10
49222;DHT22;35047;37.588;-122.048;2023-07-29T03:03:13;24.90;58.10
49222;DHT22;35047;37.588;-122.048;2023-07-29T03:05:40;24.60;58.50
49222;DHT22;35047;37.588;-122.048;2023-07-29T03:08:06;24.50;59.30
49222;DHT22;35047;37.588;-122.048;2023-07-29T03:10:35;24.30;59.70
49222;DHT22;35047;37.588;-122.048;2023-07-29T03:13:02;24.20;59.90
49222;DHT22;35047;37.588;-122.048;2023-07-29T03:15:29;24.20;60.40
49222;DHT22;35047;37.588;-122.048;2023-07-29T03:17:55;24.10;60.20
49222;DHT22;35047;37.588;-122.048;2023-07-29T03:20:22;24.00;61.00
49222;DHT22;35047;37.588;-122.048;2023-07-29T03:22:48;24.00;61.00
49222;DHT22;35047;37.588;-122.048;2023-07-29T03:25:15;24.00;61.20
49222;DHT22;35047;37.588;-122.048;2023-07-29T03:27:42;23.90;61.40
49222;DHT22;35047;37.588;-122.048;2023-07-29T03:30:09;24.00;61.20
49222;DHT22;35047;37.588;-122.048;2023-07-29T03:32:40;23.90;61.10
49222;DHT22;35047;37.588;-122.048;2023-07-29T03:35:07;23.60;61.80
49222;DHT22;35047;37.588;-122.048;2023-07-29T03:37:34;23.50;62.60
49222;DHT22;35047;37.588;-122.048;2023-07-29T03:40:00;23.50;62.60
49222;DHT22;35047;37.588;-122.048;2023-07-29T03:42:27;23.50;62.70
49222;DHT22;35047;37.588;-122.048;2023-07-29T03:44:53;23.60;62.90
49222;DHT22;35047;37.588;-122.048;2023-07-29T03:47:20;23.70;63.10
49222;DHT22;35047;37.588;-122.048;2023-07-29T03:49:46;23.80;63.60
49222;DHT22;35047;37.588;-122.048;2023-07-29T03:52:12;24.00;62.20
49222;DHT22;35047;37.588;-122.048;2023-07-29T03:54:39;24.10;62.10
49222;DHT22;35047;37.588;-122.048;2023-07-29T03:57:06;24.30;61.10
49222;DHT22;35047;37.588;-122.048;2023-07-29T03:59:33;24.60;60.00
49222;DHT22;35047;37.588;-122.048;2023-07-29T04:01:59;24.80;59.40
49222;DHT22;35047;37.588;-122.048;2023-07-29T04:04:26;24.90;58.90
49222;DHT22;35047;37.588;-122.048;2023-07-29T04:06:53;25.00;58.70
49222;DHT22;35047;37.588;-122.048;2023-07-29T04:09:19;25.20;58.50
49222;DHT22;35047;37.588;-122.048;2023-07-29T04:11:48;25.30;58.10
49222;DHT22;35047;37.588;-122.048;2023-07-29T04:14:14;25.30;58.70
49222;DHT22;35047;37.588;-122.048;2023-07-29T04:16:41;25.30;57.90
49222;DHT22;35047;37.588;-122.048;2023-07-29T04:19:07;25.50;57.60
49222;DHT22;35047;37.588;-122.048;2023-07-29T04:21:34;25.60;57.10
49222;DHT22;35047;37.588;-122.048;2023-07-29T04:24:00;25.70;56.70
49222;DHT22;35047;37.588;-122.048;2023-07-29T04:26:27;25.70;56.60
49222;DHT22;35047;37.588;-122.048;2023-07-29T04:28:53;25.70;56.40
49222;DHT22;35047;37.588;-122.048;2023-07-29T04:31:20;25.70;57.20
49222;DHT22;35047;37.588;-122.048;2023-07-29T04:33:46;25.80;56.40
49222;DHT22;35047;37.588;-122.048;2023-07-29T04:36:13;25.70;56.50
49222;DHT22;35047;37.588;-122.048;2023-07-29T04:38:39;25.70;56.60
49222;DHT22;35047;37.588;-122.048;2023-07-29T04:41:06;25.70;56.30
49222;DHT22;35047;37.588;-122.048;2023-07-29T04:43:35;25.80;56.30
49222;DHT22;35047;37.588;-122.048;2023-07-29T04:46:01;25.80;56.10
49222;DHT22;35047;37.588;-122.048;2023-07-29T04:48:27;25.60;56.10
49222;DHT22;35047;37.588;-122.048;2023-07-29T04:50:54;25.60;56.20
49222;DHT22;35047;37.588;-122.048;2023-07-29T04:53:21;25.60;56.30
49222;DHT22;35047;37.588;-122.048;2023-07-29T04:55:47;25.50;56.00
49222;DHT22;35047;37.588;-122.048;2023-07-29T04:58:14;25.60;56.20
49222;DHT22;35047;37.588;-122.048;2023-07-29T05:00:40;25.50;56.70
49222;DHT22;35047;37.588;-122.048;2023-07-29T05:03:07;25.50;56.00
49222;DHT22;35047;37.588;-122.048;2023-07-29T05:05:33;25.40;56.10
49222;DHT22;35047;37.588;-122.048;2023-07-29T05:08:00;25.40;56.10
49222;DHT22;35047;37.588;-122.048;2023-07-29T05:10:26;25.50;56.00
49222;DHT22;35047;37.588;-122.048;2023-07-29T05:12:53;25.50;56.50
49222;DHT22;35047;37.588;-122.048;2023-07-29T05:15:19;25.50;55.70
49222;DHT22;35047;37.588;-122.048;2023-07-29T05:17:46;25.50;55.70
49222;DHT22;35047;37.588;-122.048;2023-07-29T05:20:12;25.50;56.00
49222;DHT22;35047;37.588;-122.048;2023-07-29T05:22:39;25.40;56.30
49222;DHT22;35047;37.588;-122.048;2023-07-29T05:25:05;25.30;57.20
49222;DHT22;35047;37.588;-122.048;2023-07-29T05:27:32;25.40;56.60
49222;DHT22;35047;37.588;-122.048;2023-07-29T05:29:58;25.40;56.60
49222;DHT22;35047;37.588;-122.048;2023-07-29T05:32:25;25.30;56.50
49222;DHT22;35047;37.588;-122.048;2023-07-29T05:34:51;25.30;56.70
49222;DHT22;35047;37.588;-122.048;2023-07-29T05:37:18;25.40;56.70
49222;DHT22;35047;37.588;-122.048;2023-07-29T05:39:44;25.30;56.60
49222;DHT22;35047;37.588;-122.048;2023-07-29T05:42:11;25.30;56.70
49222;DHT22;35047;37.588;-122.048;2023-07-29T05:44:38;25.20;56.80
49222;DHT22;35047;37.588;-122.048;2023-07-29T05:47:04;25.30;56.90
49222;DHT22;35047;37.588;-122.048;2023-07-29T05:49:31;25.20;56.70
49222;DHT22;35047;37.588;-122.048;2023-07-29T05:51:57;25.20;56.90
49222;DHT22;35047;37.588;-122.048;2023-07-29T05:54:24;25.10;57.20
49222;DHT22;35047;37.588;-122.048;2023-07-29T05:56:51;25.10;57.30
49222;DHT22;35047;37.588;-122.048;2023-07-29T05:59:17;25.00;57.30
49222;DHT22;35047;37.588;-122.048;2023-07-29T06:01:44;25.00;57.40
49222;DHT22;35047;37.588;-122.048;2023-07-29T06:04:10;25.00;57.70
49222;DHT22;35047;37.588;-122.048;2023-07-29T06:06:37;24.90;57.90
49222;DHT22;35047;37.588;-122.048;2023-07-29T06:09:03;25.00;58.10
49222;DHT22;35047;37.588;-122.048;2023-07-29T06:11:30;25.00;57.80
49222;DHT22;35047;37.588;-122.048;2023-07-29T06:13:56;25.10;57.60
49222;DHT22;35047;37.588;-122.048;2023-07-29T06:16:23;25.10;57.70
49222;DHT22;35047;37.588;-122.048;2023-07-29T06:18:50;25.10;57.70
49222;DHT22;35047;37.588;-122.048;2023-07-29T06:21:18;25.10;57.80
49222;DHT22;35047;37.588;-122.048;2023-07-29T06:23:46;25.00;57.80
49222;DHT22;35047;37.588;-122.048;2023-07-29T06:26:13;24.90;57.90
49222;DHT22;35047;37.588;-122.048;2023-07-29T06:28:39;24.90;57.90
49222;DHT22;35047;37.588;-122.048;2023-07-29T06:31:06;25.00;58.20
49222;DHT22;35047;37.588;-122.048;2023-07-29T06:33:32;25.00;58.10
49222;DHT22;35047;37.588;-122.048;2023-07-29T06:35:59;24.90;58.00
49222;DHT22;35047;37.588;-122.048;2023-07-29T06:38:25;24.80;58.20
49222;DHT22;35047;37.588;-122.048;2023-07-29T06:40:52;24.70;58.30
49222;DHT22;35047;37.588;-122.048;2023-07-29T06:43:18;24.80;58.40
49222;DHT22;35047;37.588;-122.048;2023-07-29T06:45:45;24.80;58.50
49222;DHT22;35047;37.588;-122.048;2023-07-29T06:48:11;24.70;58.60
49222;DHT22;35047;37.588;-122.048;2023-07-29T06:50:38;24.50;59.00
49222;DHT22;35047;37.588;-122.048;2023-07-29T06:53:05;24.60;58.90
49222;DHT22;35047;37.588;-122.048;2023-07-29T06:55:32;24.50;59.10
49222;DHT22;35047;37.588;-122.048;2023-07-29T06:57:58;24.40;59.10
49222;DHT22;35047;37.588;-122.048;2023-07-29T07:00:25;24.40;59.20
49222;DHT22;35047;37.588;-122.048;2023-07-29T07:02:51;24.40;59.20
49222;DHT22;35047;37.588;-122.048;2023-07-29T07:05:18;24.30;59.40
49222;DHT22;35047;37.588;-122.048;2023-07-29T07:07:44;24.40;59.40
49222;DHT22;35047;37.588;-122.048;2023-07-29T07:10:11;24.40;59.40
49222;DHT22;35047;37.588;-122.048;2023-07-29T07:12:38;24.40;59.50
49222;DHT22;35047;37.588;-122.048;2023-07-29T07:15:04;24.30;59.80
49222;DHT22;35047;37.588;-122.048;2023-07-29T07:17:31;24.30;60.00
49222;DHT22;35047;37.588;-122.048;2023-07-29T07:19:57;24.00;60.40
49222;DHT22;35047;37.588;-122.048;2023-07-29T07:22:24;23.90;60.90
49222;DHT22;35047;37.588;-122.048;2023-07-29T07:24:51;23.80;61.00
49222;DHT22;35047;37.588;-122.048;2023-07-29T07:27:18;23.80;61.40
49222;DHT22;35047;37.588;-122.048;2023-07-29T07:29:44;23.70;61.40
49222;DHT22;35047;37.588;-122.048;2023-07-29T07:32:11;23.70;61.50
49222;DHT22;35047;37.588;-122.048;2023-07-29T07:34:37;23.70;61.60
49222;DHT22;35047;37.588;-122.048;2023-07-29T07:37:04;23.80;61.60
49222;DHT22;35047;37.588;-122.048;2023-07-29T07:39:31;23.80;61.40
49222;DHT22;35047;37.588;-122.048;2023-07-29T07:41:58;23.80;61.40
49222;DHT22;35047;37.588;-122.048;2023-07-29T07:44:24;23.90;61.40
49222;DHT22;35047;37.588;-122.048;2023-07-29T07:46:52;23.80;61.20
49222;DHT22;35047;37.588;-122.048;2023-07-29T07:49:22;23.80;61.50
49222;DHT22;35047;37.588;-122.048;2023-07-29T07:51:49;23.60;61.70
49222;DHT22;35047;37.588;-122.048;2023-07-29T07:54:16;23.70;61.90
49222;DHT22;35047;37.588;-122.048;2023-07-29T07:56:43;23.60;61.70
49222;DHT22;35047;37.588;-122.048;2023-07-29T07:59:09;23.60;61.80
49222;DHT22;35047;37.588;-122.048;2023-07-29T08:01:38;23.60;61.90
49222;DHT22;35047;37.588;-122.048;2023-07-29T08:04:04;23.50;62.10
49222;DHT22;35047;37.588;-122.048;2023-07-29T08:06:32;23.50;62.10
49222;DHT22;35047;37.588;-122.048;2023-07-29T08:08:59;23.50;62.00
49222;DHT22;35047;37.588;-122.048;2023-07-29T08:11:26;23.50;62.90
49222;DHT22;35047;37.588;-122.048;2023-07-29T08:13:52;23.40;62.10
49222;DHT22;35047;37.588;-122.048;2023-07-29T08:16:19;23.40;62.40
49222;DHT22;35047;37.588;-122.048;2023-07-29T08:18:45;23.40;62.40
49222;DHT22;35047;37.588;-122.048;2023-07-29T08:21:13;23.40;62.40
49222;DHT22;35047;37.588;-122.048;2023-07-29T08:23:41;23.40;62.40
49222;DHT22;35047;37.588;-122.048;2023-07-29T08:26:07;23.30;62.40
49222;DHT22;35047;37.588;-122.048;2023-07-29T08:28:36;23.30;62.50
49222;DHT22;35047;37.588;-122.048;2023-07-29T08:31:03;23.30;63.30
49222;DHT22;35047;37.588;-122.048;2023-07-29T08:33:30;23.20;62.70
49222;DHT22;35047;37.588;-122.048;2023-07-29T08:35:57;23.20;63.20
49222;DHT22;35047;37.588;-122.048;2023-07-29T08:38:24;22.90;63.30
49222;DHT22;35047;37.588;-122.048;2023-07-29T08:43:22;22.80;64.20
49222;DHT22;35047;37.588;-122.048;2023-07-29T08:45:50;22.70;64.10
49222;DHT22;35047;37.588;-122.048;2023-07-29T08:48:17;22.70;64.50
49222;DHT22;35047;37.588;-122.048;2023-07-29T08:50:46;22.70;64.50
49222;DHT22;35047;37.588;-122.048;2023-07-29T08:53:14;22.70;64.20
49222;DHT22;35047;37.588;-122.048;2023-07-29T08:55:40;22.80;64.10
49222;DHT22;35047;37.588;-122.048;2023-07-29T08:58:07;22.80;64.10
49222;DHT22;35047;37.588;-122.048;2023-07-29T09:00:34;22.70;64.10
49222;DHT22;35047;37.588;-122.048;2023-07-29T09:03:00;22.60;64.50
49222;DHT22;35047;37.588;-122.048;2023-07-29T09:05:33;22.60;64.70
49222;DHT22;35047;37.588;-122.048;2023-07-29T09:08:02;22.70;64.70
49222;DHT22;35047;37.588;-122.048;2023-07-29T09:10:29;22.60;64.70
49222;DHT22;35047;37.588;-122.048;2023-07-29T09:12:56;22.60;64.80
49222;DHT22;35047;37.588;-122.048;2023-07-29T09:15:29;22.50;65.00
49222;DHT22;35047;37.588;-122.048;2023-07-29T09:17:57;22.50;65.20
49222;DHT22;35047;37.588;-122.048;2023-07-29T09:20:27;22.70;65.00
49222;DHT22;35047;37.588;-122.048;2023-07-29T09:22:55;22.70;64.80
49222;DHT22;35047;37.588;-122.048;2023-07-29T09:25:25;22.80;65.00
49222;DHT22;35047;37.588;-122.048;2023-07-29T09:27:52;22.70;64.90
49222;DHT22;35047;37.588;-122.048;2023-07-29T09:30:19;22.80;64.90
49222;DHT22;35047;37.588;-122.048;2023-07-29T09:32:46;22.80;64.70
49222;DHT22;35047;37.588;-122.048;2023-07-29T09:35:13;22.90;64.40
49222;DHT22;35047;37.588;-122.048;2023-07-29T09:37:39;22.80;64.30
49222;DHT22;35047;37.588;-122.048;2023-07-29T09:40:07;22.70;65.40
49222;DHT22;35047;37.588;-122.048;2023-07-29T09:42:39;22.60;64.40
49222;DHT22;35047;37.588;-122.048;2023-07-29T09:45:06;22.70;64.80
49222;DHT22;35047;37.588;-122.048;2023-07-29T09:47:32;22.80;64.70
49222;DHT22;35047;37.588;-122.048;2023-07-29T09:50:00;22.80;64.40
49222;DHT22;35047;37.588;-122.048;2023-07-29T09:52:26;22.80;64.30
49222;DHT22;35047;37.588;-122.048;2023-07-29T09:54:54;22.80;64.40
49222;DHT22;35047;37.588;-122.048;2023-07-29T09:57:21;22.70;64.30
49222;DHT22;35047;37.588;-122.048;2023-07-29T09:59:58;22.60;64.70
49222;DHT22;35047;37.588;-122.048;2023-07-29T10:02:24;22.50;65.00
49222;DHT22;35047;37.588;-122.048;2023-07-29T10:04:55;22.40;65.50
49222;DHT22;35047;37.588;-122.048;2023-07-29T10:07:22;22.40;65.40
49222;DHT22;35047;37.588;-122.048;2023-07-29T10:09:52;22.50;65.20
49222;DHT22;35047;37.588;-122.048;2023-07-29T10:12:19;22.60;64.80
49222;DHT22;35047;37.588;-122.048;2023-07-29T10:14:48;22.60;64.60
49222;DHT22;35047;37.588;-122.048;2023-07-29T10:17:16;22.70;64.50
49222;DHT22;35047;37.588;-122.048;2023-07-29T10:19:43;22.70;64.40
49222;DHT22;35047;37.588;-122.048;2023-07-29T10:22:12;22.70;64.30
49222;DHT22;35047;37.588;-122.048;2023-07-29T10:24:41;22.70;64.20
49222;DHT22;35047;37.588;-122.048;2023-07-29T10:27:11;22.80;64.10
49222;DHT22;35047;37.588;-122.048;2023-07-29T10:29:43;22.70;64.30
49222;DHT22;35047;37.588;-122.048;2023-07-29T10:32:11;22.60;64.50
49222;DHT22;35047;37.588;-122.048;2023-07-29T10:34:39;22.50;64.80
49222;DHT22;35047;37.588;-122.048;2023-07-29T10:37:06;22.50;65.50
49222;DHT22;35047;37.588;-122.048;2023-07-29T10:39:40;22.50;64.80
49222;DHT22;35047;37.588;-122.048;2023-07-29T10:42:08;22.50;64.70
49222;DHT22;35047;37.588;-122.048;2023-07-29T10:49:55;22.60;64.70
49222;DHT22;35047;37.588;-122.048;2023-07-29T10:55:03;22.70;64.80
49222;DHT22;35047;37.588;-122.048;2023-07-29T10:57:35;22.60;64.90
49222;DHT22;35047;37.588;-122.048;2023-07-29T11:00:04;22.70;64.90
49222;DHT22;35047;37.588;-122.048;2023-07-29T11:02:32;22.80;64.50
49222;DHT22;35047;37.588;-122.048;2023-07-29T11:05:05;22.80;64.40
49222;DHT22;35047;37.588;-122.048;2023-07-29T11:07:46;22.80;64.30
49222;DHT22;35047;37.588;-122.048;2023-07-29T11:10:14;22.70;64.30
49222;DHT22;35047;37.588;-122.048;2023-07-29T11:12:50;22.70;64.40
49222;DHT22;35047;37.588;-122.048;2023-07-29T11:15:25;22.60;64.80
49222;DHT22;35047;37.588;-122.048;2023-07-29T11:17:58;22.50;65.00
49222;DHT22;35047;37.588;-122.048;2023-07-29T11:20:32;22.40;65.20
49222;DHT22;35047;37.588;-122.048;2023-07-29T11:23:03;22.30;65.50
49222;DHT22;35047;37.588;-122.048;2023-07-29T11:25:31;22.10;66.10
49222;DHT22;35047;37.588;-122.048;2023-07-29T11:28:00;22.00;66.50
49222;DHT22;35047;37.588;-122.048;2023-07-29T11:30:26;21.90;66.60
49222;DHT22;35047;37.588;-122.048;2023-07-29T11:32:54;21.70;67.40
49222;DHT22;35047;37.588;-122.048;2023-07-29T11:35:21;21.70;67.70
49222;DHT22;35047;37.588;-122.048;2023-07-29T11:37:49;21.60;68.00
49222;DHT22;35047;37.588;-122.048;2023-07-29T11:40:18;21.60;68.20
49222;DHT22;35047;37.588;-122.048;2023-07-29T11:42:46;21.50;68.40
49222;DHT22;35047;37.588;-122.048;2023-07-29T11:45:13;21.60;68.60
49222;DHT22;35047;37.588;-122.048;2023-07-29T11:47:40;21.50;68.60
49222;DHT22;35047;37.588;-122.048;2023-07-29T11:50:10;21.50;68.90
49222;DHT22;35047;37.588;-122.048;2023-07-29T11:52:37;21.40;69.10
49222;DHT22;35047;37.588;-122.048;2023-07-29T11:55:06;21.30;69.10
49222;DHT22;35047;37.588;-122.048;2023-07-29T11:57:34;21.20;69.40
49222;DHT22;35047;37.588;-122.048;2023-07-29T12:00:08;21.10;69.80
49222;DHT22;35047;37.588;-122.048;2023-07-29T12:02:38;21.10;70.30
49222;DHT22;35047;37.588;-122.048;2023-07-29T12:05:06;20.90;70.30
49222;DHT22;35047;37.588;-122.048;2023-07-29T12:07:33;20.90;70.80
49222;DHT22;35047;37.588;-122.048;2023-07-29T12:10:00;20.70;71.30
49222;DHT22;35047;37.588;-122.048;2023-07-29T12:12:26;20.70;71.60
49222;DHT22;35047;37.588;-122.048;2023-07-29T12:14:54;20.70;71.50
49222;DHT22;35047;37.588;-122.048;2023-07-29T12:17:21;20.70;71.50
49222;DHT22;35047;37.588;-122.048;2023-07-29T12:19:47;20.70;71.50
49222;DHT22;35047;37.588;-122.048;2023-07-29T12:22:18;20.70;71.70
49222;DHT22;35047;37.588;-122.048;2023-07-29T12:24:45;20.60;71.90
49222;DHT22;35047;37.588;-122.048;2023-07-29T12:27:13;20.70;72.10
49222;DHT22;35047;37.588;-122.048;2023-07-29T12:29:44;20.70;72.10
49222;DHT22;35047;37.588;-122.048;2023-07-29T12:32:12;20.70;72.20
49222;DHT22;35047;37.588;-122.048;2023-07-29T12:34:40;20.70;72.20
49222;DHT22;35047;37.588;-122.048;2023-07-29T12:37:07;20.70;72.00
49222;DHT22;35047;37.588;-122.048;2023-07-29T12:39:35;20.70;72.00
49222;DHT22;35047;37.588;-122.048;2023-07-29T12:42:02;20.70;71.90
49222;DHT22;35047;37.588;-122.048;2023-07-29T12:44:32;20.70;72.00
49222;DHT22;35047;37.588;-122.048;2023-07-29T12:47:04;20.70;71.90
49222;DHT22;35047;37.588;-122.048;2023-07-29T12:49:31;20.70;72.00
49222;DHT22;35047;37.588;-122.048;2023-07-29T12:51:59;20.60;71.90
49222;DHT22;35047;37.588;-122.048;2023-07-29T12:54:26;20.60;71.90
49222;DHT22;35047;37.588;-122.048;2023-07-29T12:56:52;20.50;71.80
49222;DHT22;35047;37.588;-122.048;2023-07-29T12:59:18;20.50;71.90
49222;DHT22;35047;37.588;-122.048;2023-07-29T13:01:45;20.60;71.70
49222;DHT22;35047;37.588;-122.048;2023-07-29T13:04:12;20.50;71.80
49222;DHT22;35047;37.588;-122.048;2023-07-29T13:06:38;20.50;72.00
49222;DHT22;35047;37.588;-122.048;2023-07-29T13:09:05;20.50;72.00
49222;DHT22;35047;37.588;-122.048;2023-07-29T13:11:32;20.50;71.90
49222;DHT22;35047;37.588;-122.048;2023-07-29T13:13:58;20.40;71.70
49222;DHT22;35047;37.588;-122.048;2023-07-29T13:16:27;20.40;71.70
49222;DHT22;35047;37.588;-122.048;2023-07-29T13:18:54;20.40;72.00
49222;DHT22;35047;37.588;-122.048;2023-07-29T13:21:20;20.40;72.00
49222;DHT22;35047;37.588;-122.048;2023-07-29T13:23:47;20.40;72.00
49222;DHT22;35047;37.588;-122.048;2023-07-29T13:26:13;20.40;72.30
49222;DHT22;35047;37.588;-122.048;2023-07-29T13:28:40;20.30;72.10
49222;DHT22;35047;37.588;-122.048;2023-07-29T13:31:06;20.30;72.20
49222;DHT22;35047;37.588;-122.048;2023-07-29T13:33:33;20.30;72.40
49222;DHT22;35047;37.588;-122.048;2023-07-29T13:36:01;20.30;72.60
49222;DHT22;35047;37.588;-122.048;2023-07-29T13:38:30;20.30;72.80
49222;DHT22;35047;37.588;-122.048;2023-07-29T13:40:56;20.30;73.20
49222;DHT22;35047;37.588;-122.048;2023-07-29T13:43:23;20.30;73.50
49222;DHT22;35047;37.588;-122.048;2023-07-29T13:45:50;20.30;73.60
49222;DHT22;35047;37.588;-122.048;2023-07-29T13:48:17;20.30;73.60
49222;DHT22;35047;37.588;-122.048;2023-07-29T13:50:44;20.30;73.70
49222;DHT22;35047;37.588;-122.048;2023-07-29T13:53:10;20.40;73.90
49222;DHT22;35047;37.588;-122.048;2023-07-29T13:55:37;20.40;74.00
49222;DHT22;35047;37.588;-122.048;2023-07-29T13:58:04;20.40;74.10
49222;DHT22;35047;37.588;-122.048;2023-07-29T14:00:30;20.40;74.70
49222;DHT22;35047;37.588;-122.048;2023-07-29T14:02:57;20.50;74.30
49222;DHT22;35047;37.588;-122.048;2023-07-29T14:05:23;20.60;74.50
49222;DHT22;35047;37.588;-122.048;2023-07-29T14:07:50;20.60;74.60
49222;DHT22;35047;37.588;-122.048;2023-07-29T14:10:16;20.60;74.80
49222;DHT22;35047;37.588;-122.048;2023-07-29T14:12:43;20.60;74.90
49222;DHT22;35047;37.588;-122.048;2023-07-29T14:15:09;20.70;75.10
49222;DHT22;35047;37.588;-122.048;2023-07-29T14:17:36;20.70;74.80
49222;DHT22;35047;37.588;-122.048;2023-07-29T14:20:02;20.80;74.70
49222;DHT22;35047;37.588;-122.048;2023-07-29T14:22:30;20.90;74.30
49222;DHT22;35047;37.588;-122.048;2023-07-29T14:24:57;20.90;74.20
49222;DHT22;35047;37.588;-122.048;2023-07-29T14:27:23;21.00;74.40
49222;DHT22;35047;37.588;-122.048;2023-07-29T14:29:50;21.10;74.30
49222;DHT22;35047;37.588;-122.048;2023-07-29T14:32:16;21.10;74.70
49222;DHT22;35047;37.588;-122.048;2023-07-29T14:34:43;21.20;73.60
49222;DHT22;35047;37.588;-122.048;2023-07-29T14:37:09;21.20;73.70
49222;DHT22;35047;37.588;-122.048;2023-07-29T14:39:36;21.30;73.60
49222;DHT22;35047;37.588;-122.048;2023-07-29T14:42:03;21.40;72.90
49222;DHT22;35047;37.588;-122.048;2023-07-29T14:44:30;21.60;72.70
49222;DHT22;35047;37.588;-122.048;2023-07-29T14:46:56;21.60;72.60
49222;DHT22;35047;37.588;-122.048;2023-07-29T14:49:23;21.60;72.50
49222;DHT22;35047;37.588;-122.048;2023-07-29T14:51:49;21.80;72.50
49222;DHT22;35047;37.588;-122.048;2023-07-29T14:54:16;21.90;72.10
49222;DHT22;35047;37.588;-122.048;2023-07-29T14:56:42;22.00;71.70
49222;DHT22;35047;37.588;-122.048;2023-07-29T14:59:09;22.10;71.50
49222;DHT22;35047;37.588;-122.048;2023-07-29T15:01:35;22.10;71.40
49222;DHT22;35047;37.588;-122.048;2023-07-29T15:04:02;22.10;71.20